Time;durP1;ratioP1;P1;durP2;ratioP2;P2;SDS_P1;SDS_P2;PMS_P1;PMS_P2;Temp;Humidity;BMP_temperature;BMP_pressure;BME280_temperature;BME280_humidity;BME280_pressure;Samples;Min_cycle;Max_cycle;Signal;HPM_P1;HPM_P2
2023/04/04 00:01:25;;;;;;;5.72;3.42;;;;;;;-0.24;76.51;99704.34;4163394;28;20056;-72
2023/04/04 00:03:26;;;;;;;4.90;2.30;;;;;;;-0.23;76.21;99705.16;4167917;28;20398;-72
2023/04/04 00:05:27;;;;;;;5.05;3.35;;;;;;;-0.18;77.48;99707.84;4161583;28;20083;-72
2023/04/04 00:07:27;;;;;;;4.63;2.53;;;;;;;-0.21;77.74;99700.25;4161240;28;20048;-72
2023/04/04 00:09:27;;;;;;;3.50;2.67;;;;;;;-0.22;77.61;99702.16;4162932;28;20049;-72
2023/04/04 00:11:28;;;;;;;5.30;2.85;;;;;;;-0.23;77.44;99699.72;4161551;28;20505;-72
2023/04/04 00:13:28;;;;;;;6.47;2.90;;;;;;;-0.26;79.43;99705.69;4160913;28;20588;-72
2023/04/04 00:15:29;;;;;;;4.03;2.78;;;;;;;-0.30;79.83;99705.47;4164681;28;20036;-72
2023/04/04 00:17:29;;;;;;;4.72;2.60;;;;;;;-0.30;80.80;99702.75;4161665;28;20141;-72
2023/04/04 00:19:30;;;;;;;4.35;2.97;;;;;;;-0.33;82.08;99701.41;4161631;28;20060;-72
2023/04/04 00:21:31;;;;;;;7.07;3.35;;;;;;;-0.32;82.19;99702.22;4162375;28;20061;-72
2023/04/04 00:23:31;;;;;;;3.42;2.53;;;;;;;-0.34;82.53;99699.75;4163418;28;20087;-72
2023/04/04 00:25:31;;;;;;;4.10;2.85;;;;;;;-0.33;84.14;99697.88;4161355;28;20079;-72
2023/04/04 00:27:32;;;;;;;5.20;3.05;;;;;;;-0.35;84.74;99689.97;4178370;28;20671;-72
2023/04/04 00:29:36;;;;;;;4.63;2.75;;;;;;;-0.36;84.64;99688.34;4162442;28;20047;-72
2023/04/04 00:31:36;;;;;;;6.05;2.90;;;;;;;-0.34;84.33;99694.28;4160971;28;20332;-72
2023/04/04 00:33:36;;;;;;;4.05;2.58;;;;;;;-0.35;84.37;99694.59;4176439;28;20037;-72
2023/04/04 00:35:37;;;;;;;3.45;2.63;;;;;;;-0.35;84.71;99700.84;4160630;28;20045;-72
2023/04/04 00:37:37;;;;;;;3.70;2.55;;;;;;;-0.38;84.81;99689.72;4161834;28;20073;-72
2023/04/04 00:39:38;;;;;;;3.40;2.42;;;;;;;-0.37;86.58;99694.06;4161672;28;20608;-72
2023/04/04 00:41:38;;;;;;;3.15;2.53;;;;;;;-0.38;86.83;99695.97;4161142;28;20040;-72
2023/04/04 00:43:39;;;;;;;3.10;2.58;;;;;;;-0.40;86.91;99690.00;4160918;28;20508;-72
2023/04/04 00:45:40;;;;;;;4.22;2.83;;;;;;;-0.43;85.85;99690.53;4160720;28;20064;-72
2023/04/04 00:47:42;;;;;;;3.45;2.70;;;;;;;-0.49;86.23;99688.13;4164226;28;20440;-72
2023/04/04 00:49:45;;;;;;;3.10;2.45;;;;;;;-0.54;86.31;99696.28;4164792;28;20100;-72
2023/04/04 00:51:45;;;;;;;3.50;2.85;;;;;;;-0.59;86.75;99691.66;4161273;28;20160;-72
2023/04/04 00:53:46;;;;;;;4.18;2.53;;;;;;;-0.68;87.18;99691.38;4160970;28;20523;-72
2023/04/04 00:55:47;;;;;;;5.15;2.55;;;;;;;-0.71;87.21;99689.22;4159976;28;20466;-72
2023/04/04 00:57:48;;;;;;;3.10;2.30;;;;;;;-0.75;87.90;99690.84;4161044;28;20060;-72
2023/04/04 00:59:49;;;;;;;5.43;2.75;;;;;;;-0.74;88.65;99684.34;4163843;28;20236;-72
2023/04/04 01:01:50;;;;;;;3.85;2.30;;;;;;;-0.76;88.58;99686.50;4162292;28;20064;-72
2023/04/04 01:03:51;;;;;;;4.72;2.70;;;;;;;-0.77;88.97;99679.44;4163340;28;20049;-72
2023/04/04 01:05:51;;;;;;;2.35;2.15;;;;;;;-0.75;89.05;99684.59;4161742;28;20081;-72
2023/04/04 01:07:52;;;;;;;3.38;2.63;;;;;;;-0.76;89.45;99678.38;4163178;28;20540;-72
2023/04/04 01:09:55;;;;;;;10.38;3.30;;;;;;;-0.76;89.56;99680.25;4159592;28;20041;-72
2023/04/04 01:11:56;;;;;;;3.10;2.50;;;;;;;-0.73;90.26;99685.16;4161541;28;20489;-72
2023/04/04 01:13:57;;;;;;;2.35;2.15;;;;;;;-0.73;90.24;99683.28;4160336;28;20057;-72
2023/04/04 01:15:57;;;;;;;3.55;2.83;;;;;;;-0.76;89.64;99675.66;4160704;28;20042;-72
2023/04/04 01:18:01;;;;;;;3.60;2.60;;;;;;;-0.75;89.64;99680.00;4160096;28;20132;-72
2023/04/04 01:20:09;;;;;;;3.10;2.28;;;;;;;-0.76;89.29;99678.38;4160957;28;20049;-72
2023/04/04 01:22:12;;;;;;;3.55;2.30;;;;;;;-0.77;89.06;99676.75;4160274;28;20445;-72
2023/04/04 01:24:15;;;;;;;3.55;2.38;;;;;;;-0.76;89.07;99675.66;4159474;28;20029;-72
2023/04/04 01:26:16;;;;;;;4.20;2.50;;;;;;;-0.75;88.97;99680.00;4160395;28;20462;-72
2023/04/04 01:28:16;;;;;;;3.35;2.28;;;;;;;-0.74;89.29;99675.41;4160501;28;20029;-72
2023/04/04 01:30:17;;;;;;;5.57;2.08;;;;;;;-0.73;89.66;99677.03;4160578;28;20037;-72
2023/04/04 01:32:40;;;;;;;3.08;2.33;;;;;;;-0.72;89.95;99675.94;4159529;28;20021;-72
2023/04/04 01:34:53;;;;;;;2.88;2.38;;;;;;;-0.72;89.67;99665.06;4159487;28;20276;-73
2023/04/04 01:36:59;;;;;;;3.88;2.60;;;;;;;-0.67;89.76;99684.06;4162258;28;20044;-72
2023/04/04 01:39:26;;;;;;;3.85;2.47;;;;;;;-0.65;88.09;99668.31;4159607;28;20037;-72
2023/04/04 01:41:31;;;;;;;3.72;2.53;;;;;;;-0.65;87.55;99671.03;4158866;28;20076;-72
2023/04/04 01:43:31;;;;;;;5.03;2.58;;;;;;;-0.57;87.15;99675.91;4160386;28;20136;-72
2023/04/04 01:45:32;;;;;;;4.20;2.55;;;;;;;-0.58;86.32;99675.09;4160206;28;20080;-72
2023/04/04 01:47:40;;;;;;;4.47;2.50;;;;;;;-0.58;86.89;99668.81;4159854;28;20409;-72
2023/04/04 01:49:41;;;;;;;3.35;2.38;;;;;;;-0.57;88.61;99665.84;4159071;28;20064;-72
2023/04/04 01:51:41;;;;;;;3.33;2.40;;;;;;;-0.52;86.55;99661.47;4160686;28;20041;-72
2023/04/04 01:53:41;;;;;;;4.47;2.80;;;;;;;-0.54;86.71;99655.50;4164102;28;20084;-72
2023/04/04 01:55:42;;;;;;;3.80;2.28;;;;;;;-0.55;87.80;99656.59;4160246;28;20447;-72
2023/04/04 01:57:43;;;;;;;2.72;2.50;;;;;;;-0.59;87.09;99657.13;4159809;28;20044;-72
2023/04/04 01:59:43;;;;;;;4.22;2.50;;;;;;;-0.57;89.04;99659.59;4160421;28;20401;-72
2023/04/04 02:01:43;;;;;;;7.75;2.72;;;;;;;-0.58;89.35;99658.78;4158980;28;20068;-72
2023/04/04 02:03:44;;;;;;;3.42;2.33;;;;;;;-0.58;88.53;99656.06;4158808;28;20556;-72
2023/04/04 02:05:45;;;;;;;3.97;2.80;;;;;;;-0.59;87.66;99656.31;4160192;28;20103;-72
2023/04/04 02:07:51;;;;;;;4.25;2.40;;;;;;;-0.59;86.77;99650.88;4160007;28;20038;-72
2023/04/04 02:09:52;;;;;;;2.92;2.42;;;;;;;-0.57;87.03;99654.16;4160264;28;20041;-72
2023/04/04 02:11:52;;;;;;;4.50;2.75;;;;;;;-0.58;87.73;99658.78;4159319;28;20046;-72
2023/04/04 02:13:52;;;;;;;3.78;2.50;;;;;;;-0.58;88.42;99650.63;4158736;28;20197;-72
2023/04/04 02:15:53;;;;;;;3.55;2.67;;;;;;;-0.58;88.55;99656.06;4160332;28;20060;-73
2023/04/04 02:17:53;;;;;;;4.50;2.75;;;;;;;-0.63;88.04;99649.81;4159621;28;20585;-72
2023/04/04 02:19:54;;;;;;;5.00;3.00;;;;;;;-0.61;88.57;99651.16;4160865;28;20433;-73
2023/04/04 02:21:55;;;;;;;3.22;2.58;;;;;;;-0.63;87.99;99653.34;4159385;28;20057;-72
2023/04/04 02:23:55;;;;;;;3.88;2.30;;;;;;;-0.64;87.76;99649.00;4164433;28;20372;-72
2023/04/04 02:25:56;;;;;;;4.05;3.45;;;;;;;-0.65;87.70;99650.09;4158294;28;20237;-72
2023/04/04 02:27:56;;;;;;;3.88;2.22;;;;;;;-0.64;86.88;99653.63;4160381;28;20076;-72
2023/04/04 02:29:56;;;;;;;3.35;2.47;;;;;;;-0.66;87.31;99651.19;4160606;28;20077;-72
2023/04/04 02:31:57;;;;;;;3.22;2.50;;;;;;;-0.67;87.74;99641.38;4164534;28;20064;-72
2023/04/04 02:33:57;;;;;;;3.70;2.70;;;;;;;-0.69;86.91;99648.19;4160280;28;20119;-72
2023/04/04 02:35:58;;;;;;;5.35;2.55;;;;;;;-0.72;86.48;99637.88;4159086;28;20084;-72
2023/04/04 02:37:59;;;;;;;5.20;2.80;;;;;;;-0.76;86.49;99636.78;4158959;28;20038;-72
2023/04/04 02:39:59;;;;;;;5.47;2.55;;;;;;;-0.81;86.74;99632.19;4159887;28;20152;-72
2023/04/04 02:41:59;;;;;;;3.20;2.47;;;;;;;-0.83;87.39;99638.97;4158821;28;20041;-72
2023/04/04 02:44:00;;;;;;;2.65;2.17;;;;;;;-0.90;86.91;99631.13;4158440;28;20045;-72
2023/04/04 02:46:02;;;;;;;3.90;2.72;;;;;;;-0.96;87.58;99633.03;4159655;28;20064;-72
2023/04/04 02:48:03;;;;;;;3.58;2.60;;;;;;;-1.00;88.23;99641.97;4159438;28;20371;-72
2023/04/04 02:50:04;;;;;;;3.75;2.75;;;;;;;-1.01;90.08;99627.59;4158865;28;20036;-72
2023/04/04 02:52:04;;;;;;;6.88;2.75;;;;;;;-1.02;91.54;99623.25;4159644;28;20108;-72
2023/04/04 02:54:05;;;;;;;4.40;3.03;;;;;;;-1.08;91.25;99616.19;4158815;28;20021;-72
2023/04/04 02:56:06;;;;;;;3.63;2.80;;;;;;;-1.09;92.64;99619.19;4158545;28;20037;-72
2023/04/04 02:58:06;;;;;;;3.28;2.78;;;;;;;-1.18;92.45;99617.00;4160051;28;20037;-71
2023/04/04 03:00:08;;;;;;;5.05;2.85;;;;;;;-1.18;94.92;99618.91;4162637;28;20064;-71
2023/04/04 03:02:08;;;;;;;3.80;2.50;;;;;;;-1.19;94.41;99620.00;4158406;28;20017;-72
2023/04/04 03:04:08;;;;;;;3.75;2.90;;;;;;;-1.20;94.77;99624.63;4157938;28;20366;-72
2023/04/04 03:06:10;;;;;;;4.22;3.22;;;;;;;-1.20;94.73;99627.34;4159402;28;20353;-72
2023/04/04 03:08:10;;;;;;;4.03;3.17;;;;;;;-1.26;93.82;99614.03;4159096;28;20108;-72
2023/04/04 03:10:11;;;;;;;4.13;2.95;;;;;;;-1.30;94.74;99619.22;4159250;28;20057;-72
2023/04/04 03:12:11;;;;;;;4.90;2.95;;;;;;;-1.31;93.71;99617.59;4161030;28;20541;-72
2023/04/04 03:14:12;;;;;;;6.10;4.00;;;;;;;-1.36;93.28;99611.34;4157937;28;20111;-71
2023/04/04 03:16:14;;;;;;;3.65;2.92;;;;;;;-1.38;94.68;99611.63;4160515;28;20055;-71
2023/04/04 03:18:14;;;;;;;5.05;3.65;;;;;;;-1.38;95.46;99608.91;4159162;28;20060;-71
2023/04/04 03:20:15;;;;;;;5.97;3.67;;;;;;;-1.42;95.12;99605.91;4159037;28;20018;-71
2023/04/04 03:22:15;;;;;;;5.13;3.35;;;;;;;-1.51;94.98;99602.09;4158998;28;20591;-71
2023/04/04 03:24:15;;;;;;;3.88;2.60;;;;;;;-1.52;94.97;99610.53;4158161;28;20029;-71
2023/04/04 03:26:16;;;;;;;6.15;3.35;;;;;;;-1.55;94.60;99595.59;4159185;28;20072;-72
2023/04/04 03:28:16;;;;;;;3.40;2.90;;;;;;;-1.52;94.84;99597.75;4164627;28;20060;-71
2023/04/04 03:30:17;;;;;;;4.15;2.90;;;;;;;-1.53;94.86;99600.75;4159446;28;20072;-71
2023/04/04 03:32:17;;;;;;;4.13;2.83;;;;;;;-1.56;95.43;99593.16;4159713;28;20025;-71
2023/04/04 03:34:18;;;;;;;5.65;3.20;;;;;;;-1.57;95.57;99592.34;4158220;28;20033;-71
2023/04/04 03:36:18;;;;;;;4.20;3.28;;;;;;;-1.58;96.15;99592.59;4165976;28;20033;-71
2023/04/04 03:38:19;;;;;;;4.75;3.25;;;;;;;-1.57;96.84;99595.06;4159057;28;20022;-71
2023/04/04 03:40:19;;;;;;;4.57;3.42;;;;;;;-1.58;97.21;99598.84;4158635;28;20112;-71
2023/04/04 03:42:19;;;;;;;4.65;3.90;;;;;;;-1.57;98.47;99596.94;4158495;28;20032;-71
2023/04/04 03:44:20;;;;;;;7.40;3.55;;;;;;;-1.59;99.64;99599.13;4158679;28;20116;-71
2023/04/04 03:46:20;;;;;;;8.02;3.30;;;;;;;-1.54;99.16;99591.78;4160436;28;20206;-71
2023/04/04 03:48:21;;;;;;;5.35;3.17;;;;;;;-1.53;98.96;99593.41;4159877;28;20054;-71
2023/04/04 03:50:21;;;;;;;7.43;3.88;;;;;;;-1.54;99.61;99599.13;4159212;28;20080;-71
2023/04/04 03:52:22;;;;;;;4.60;3.15;;;;;;;-1.51;99.24;99588.53;4158041;28;20037;-71
2023/04/04 03:54:22;;;;;;;5.72;3.17;;;;;;;-1.52;98.63;99594.22;4159016;28;20072;-71
2023/04/04 03:56:22;;;;;;;4.13;3.30;;;;;;;-1.56;98.38;99585.03;4163328;28;20351;-71
2023/04/04 03:58:24;;;;;;;4.28;2.92;;;;;;;-1.60;98.61;99594.78;4164134;28;20095;-71
2023/04/04 04:00:25;;;;;;;4.40;2.70;;;;;;;-1.60;98.52;99589.34;4162403;28;20033;-71
2023/04/04 04:02:25;;;;;;;3.78;2.55;;;;;;;-1.58;99.15;99587.16;4160690;28;20073;-71
2023/04/04 04:04:25;;;;;;;7.22;3.03;;;;;;;-1.59;98.88;99583.63;4162078;28;20053;-71
2023/04/04 04:06:26;;;;;;;6.10;3.55;;;;;;;-1.61;98.53;99579.59;4165326;28;20065;-71
2023/04/04 04:08:26;;;;;;;5.47;3.40;;;;;;;-1.58;99.08;99587.16;4163533;28;20063;-71
2023/04/04 04:10:27;;;;;;;3.78;2.88;;;;;;;-1.56;99.55;99587.72;4161156;28;20042;-71
2023/04/04 04:12:27;;;;;;;4.60;3.00;;;;;;;-1.54;99.38;99582.84;4164507;28;20431;-71
2023/04/04 04:14:27;;;;;;;4.55;2.95;;;;;;;-1.47;97.77;99583.38;4161648;28;20132;-71
2023/04/04 04:16:28;;;;;;;7.10;3.10;;;;;;;-1.53;98.94;99571.72;4161462;28;20045;-71
2023/04/04 04:18:28;;;;;;;4.00;2.83;;;;;;;-1.54;99.38;99572.78;4162821;28;20037;-71
2023/04/04 04:20:28;;;;;;;5.05;3.17;;;;;;;-1.59;99.69;99583.63;4162550;28;20041;-71
2023/04/04 04:22:29;;;;;;;5.07;3.10;;;;;;;-1.61;99.99;99585.00;4159802;28;20049;-71
2023/04/04 04:24:29;;;;;;;3.80;2.83;;;;;;;-1.63;100.00;99582.56;4161455;28;20049;-71
2023/04/04 04:26:29;;;;;;;5.05;3.05;;;;;;;-1.67;100.00;99591.50;4161541;28;20343;-71
2023/04/04 04:28:30;;;;;;;8.98;3.55;;;;;;;-1.76;100.00;99588.53;4161329;28;20045;-71
2023/04/04 04:30:30;;;;;;;4.65;3.10;;;;;;;-1.85;100.00;99585.53;4160599;28;20045;-71
2023/04/04 04:32:30;;;;;;;5.20;3.00;;;;;;;-1.94;100.00;99587.16;4161744;28;20081;-71
2023/04/04 04:34:31;;;;;;;8.05;3.30;;;;;;;-1.93;100.00;99594.19;4161163;28;20115;-71
2023/04/04 04:36:32;;;;;;;4.18;3.00;;;;;;;-1.94;100.00;99584.44;4160842;28;20505;-71
2023/04/04 04:38:32;;;;;;;4.45;2.80;;;;;;;-1.93;100.00;99582.53;4162332;28;20141;-71
2023/04/04 04:40:33;;;;;;;6.63;3.30;;;;;;;-1.94;100.00;99576.28;4161388;28;20049;-71
2023/04/04 04:42:33;;;;;;;7.43;3.60;;;;;;;-1.88;100.00;99580.66;4160240;28;20521;-71
2023/04/04 04:44:34;;;;;;;7.35;3.25;;;;;;;-1.79;100.00;99587.16;4160356;28;20060;-71
2023/04/04 04:46:34;;;;;;;5.63;3.03;;;;;;;-1.77;100.00;99581.47;4167185;28;20084;-71
2023/04/04 04:48:35;;;;;;;11.60;3.45;;;;;;;-1.81;100.00;99573.06;4165028;28;20045;-71
2023/04/04 04:50:35;;;;;;;5.50;2.83;;;;;;;-1.81;100.00;99583.09;4160140;28;20478;-71
2023/04/04 04:52:37;;;;;;;5.07;2.88;;;;;;;-1.85;100.00;99582.81;4160819;28;20080;-71
2023/04/04 04:54:37;;;;;;;4.25;3.40;;;;;;;-1.85;100.00;99590.13;4161218;28;20073;-71
2023/04/04 04:56:37;;;;;;;4.70;3.08;;;;;;;-1.80;100.00;99592.88;4160128;28;20301;-71
2023/04/04 04:58:38;;;;;;;6.85;2.92;;;;;;;-1.80;100.00;99588.25;4161146;28;20441;-71
2023/04/04 05:00:38;;;;;;;4.75;2.75;;;;;;;-1.75;100.00;99585.53;4160694;28;20524;-71
2023/04/04 05:02:38;;;;;;;5.95;3.28;;;;;;;-1.72;100.00;99586.91;4159902;28;20073;-71
2023/04/04 05:04:40;;;;;;;6.25;2.92;;;;;;;-1.68;100.00;99581.75;4161302;28;20369;-71
2023/04/04 05:06:40;;;;;;;3.80;2.60;;;;;;;-1.63;100.00;99587.19;4160546;28;20026;-71
2023/04/04 05:08:40;;;;;;;5.10;2.88;;;;;;;-1.59;100.00;99591.78;4162282;28;20044;-71
2023/04/04 05:10:41;;;;;;;3.80;2.80;;;;;;;-1.54;100.00;99588.28;4160334;28;20050;-71
2023/04/04 05:12:44;;;;;;;4.30;2.50;;;;;;;-1.56;100.00;99585.03;4159875;28;20045;-71
2023/04/04 05:14:45;;;;;;;4.20;2.85;;;;;;;-1.55;100.00;99602.94;4160785;28;20041;-71
2023/04/04 05:16:45;;;;;;;4.45;2.83;;;;;;;-1.52;100.00;99596.94;4161104;28;20465;-70
2023/04/04 05:18:46;;;;;;;6.38;2.70;;;;;;;-1.55;100.00;99594.78;4160337;28;20042;-71
2023/04/04 05:21:04;;;;;;;7.03;2.90;;;;;;;-1.55;100.00;99597.50;4160565;28;20041;-71
2023/04/04 05:23:05;;;;;;;4.68;2.47;;;;;;;-1.55;100.00;99598.31;4160188;28;20045;-71
2023/04/04 05:25:06;;;;;;;4.55;3.03;;;;;;;-1.52;100.00;99600.47;4160299;28;20064;-71
2023/04/04 05:27:06;;;;;;;7.10;3.08;;;;;;;-1.42;100.00;99603.19;4164103;28;20068;-71
2023/04/04 05:29:06;;;;;;;4.22;2.58;;;;;;;-1.42;100.00;99597.75;4160740;28;20033;-70
2023/04/04 05:31:07;;;;;;;5.63;2.80;;;;;;;-1.38;100.00;99606.19;4159993;28;20049;-70
2023/04/04 05:33:07;;;;;;;7.13;2.80;;;;;;;-1.38;100.00;99608.91;4161371;28;20048;-71
2023/04/04 05:35:08;;;;;;;4.90;3.20;;;;;;;-1.41;100.00;99606.72;4162765;28;20125;-71
2023/04/04 05:37:08;;;;;;;5.07;2.75;;;;;;;-1.45;100.00;99611.06;4159317;28;20045;-71
2023/04/04 05:39:08;;;;;;;4.20;3.20;;;;;;;-1.46;100.00;99618.41;4161413;28;20128;-71
2023/04/04 05:41:09;;;;;;;5.45;2.95;;;;;;;-1.46;100.00;99612.16;4160443;28;20045;-71
2023/04/04 05:43:09;;;;;;;13.13;3.30;;;;;;;-1.46;100.00;99614.88;4159757;28;20037;-71
2023/04/04 05:45:10;;;;;;;16.10;3.20;;;;;;;-1.46;100.00;99614.88;4159465;28;20044;-70
2023/04/04 05:47:10;;;;;;;8.25;3.00;;;;;;;-1.49;100.00;99613.53;4160727;28;20465;-71
2023/04/04 05:49:11;;;;;;;10.52;4.00;;;;;;;-1.53;100.00;99620.56;4160198;28;20039;-70
2023/04/04 05:51:11;;;;;;;5.00;3.10;;;;;;;-1.47;100.00;99618.69;4159433;28;20312;-71
2023/04/04 05:53:11;;;;;;;3.92;3.03;;;;;;;-1.47;100.00;99619.50;4160159;28;20068;-71
2023/04/04 05:55:11;;;;;;;6.10;3.70;;;;;;;-1.43;100.00;99619.75;4159859;28;20095;-70
2023/04/04 05:57:12;;;;;;;8.73;3.20;;;;;;;-1.41;100.00;99620.28;4159658;28;20041;-71
2023/04/04 05:59:12;;;;;;;7.15;4.15;;;;;;;-1.36;100.00;99614.88;4160596;28;20033;-71
2023/04/04 06:01:12;;;;;;;6.55;3.65;;;;;;;-1.31;100.00;99622.22;4159994;28;20397;-71
2023/04/04 06:03:13;;;;;;;9.45;4.38;;;;;;;-1.31;100.00;99625.72;4158755;28;20481;-70
2023/04/04 06:05:13;;;;;;;7.60;3.38;;;;;;;-1.29;100.00;99623.56;4163262;28;20049;-71
2023/04/04 06:07:15;;;;;;;6.57;3.35;;;;;;;-1.27;100.00;99631.41;4160856;28;20215;-71
2023/04/04 06:09:15;;;;;;;5.38;3.17;;;;;;;-1.27;100.00;99634.13;4159482;28;20131;-71
2023/04/04 06:11:15;;;;;;;4.45;3.00;;;;;;;-1.23;100.00;99627.09;4163308;28;20080;-71
2023/04/04 06:13:16;;;;;;;6.43;3.50;;;;;;;-1.27;100.00;99634.13;4158981;28;20061;-71
2023/04/04 06:15:16;;;;;;;5.75;3.25;;;;;;;-1.28;100.00;99637.94;4160517;28;20068;-71
2023/04/04 06:17:17;;;;;;;6.68;3.38;;;;;;;-1.29;100.00;99636.31;4159299;28;20497;-71
2023/04/04 06:19:17;;;;;;;7.78;2.90;;;;;;;-1.34;100.00;99637.13;4159956;28;20092;-70
2023/04/04 06:21:17;;;;;;;6.55;3.38;;;;;;;-1.31;100.00;99635.78;4159826;28;20061;-71
2023/04/04 06:23:18;;;;;;;6.07;3.05;;;;;;;-1.22;100.00;99636.88;4157968;28;20045;-71
2023/04/04 06:25:19;;;;;;;5.07;3.30;;;;;;;-1.21;100.00;99639.31;4160296;28;20053;-71
2023/04/04 06:27:19;;;;;;;5.20;2.92;;;;;;;-1.15;100.00;99637.41;4159478;28;20099;-71
2023/04/04 06:29:20;;;;;;;5.63;3.15;;;;;;;-1.06;100.00;99643.09;4159379;28;20049;-71
2023/04/04 06:31:20;;;;;;;5.30;2.95;;;;;;;-0.98;100.00;99647.97;4163659;28;20136;-71
2023/04/04 06:33:20;;;;;;;4.55;2.90;;;;;;;-0.90;100.00;99642.00;4158444;28;20485;-71
2023/04/04 06:35:21;;;;;;;6.00;3.42;;;;;;;-0.77;100.00;99643.31;4160439;28;20131;-71
2023/04/04 06:37:21;;;;;;;5.40;3.40;;;;;;;-0.64;100.00;99650.91;4158782;28;20049;-71
2023/04/04 06:39:21;;;;;;;5.05;2.63;;;;;;;-0.50;100.00;99637.53;4159426;28;20547;-71
2023/04/04 06:41:22;;;;;;;7.43;3.17;;;;;;;-0.41;100.00;99642.13;4160277;28;20069;-71
2023/04/04 06:43:22;;;;;;;4.15;2.58;;;;;;;-0.29;100.00;99649.97;4158057;28;20129;-71
2023/04/04 06:45:26;;;;;;;5.35;2.65;;;;;;;-0.18;100.00;99642.56;4160748;28;20116;-72
2023/04/04 06:47:26;;;;;;;6.93;3.22;;;;;;;-0.10;100.00;99642.00;4161716;28;20427;-71
2023/04/04 06:49:27;;;;;;;6.70;3.30;;;;;;;-0.10;100.00;99650.97;4180678;28;20094;-71
2023/04/04 06:51:27;;;;;;;5.05;3.10;;;;;;;-0.10;100.00;99650.97;4158538;28;20408;-71
2023/04/04 06:53:28;;;;;;;5.63;3.10;;;;;;;-0.02;100.00;99644.13;4159529;28;20049;-72
2023/04/04 06:55:29;;;;;;;7.30;3.50;;;;;;;0.06;100.00;99645.44;4159476;28;20493;-72
2023/04/04 06:57:29;;;;;;;6.50;3.67;;;;;;;0.13;100.00;99654.13;4159684;28;20096;-72
2023/04/04 06:59:30;;;;;;;7.63;4.13;;;;;;;0.19;100.00;99653.00;4160649;28;20084;-71
2023/04/04 07:01:32;;;;;;;6.70;3.88;;;;;;;0.22;100.00;99650.53;4159458;28;20307;-70
2023/04/04 07:03:32;;;;;;;;;;;;;;;0.25;100.00;99649.16;4159264;28;20224;-71
2023/04/04 07:05:38;;;;;;;8.40;3.85;;;;;;;0.21;100.00;99646.19;4157976;28;19956;-71
2023/04/04 07:07:38;;;;;;;3.80;2.92;;;;;;;0.20;100.00;99657.34;4159309;28;20056;-71
2023/04/04 07:09:38;;;;;;;7.95;3.63;;;;;;;0.17;100.00;99652.47;4165347;28;20041;-71
2023/04/04 07:11:39;;;;;;;7.20;3.65;;;;;;;0.17;100.00;99653.28;4159208;28;20081;-71
2023/04/04 07:13:39;;;;;;;6.47;3.40;;;;;;;0.16;100.00;99661.72;4159354;28;20462;-71
2023/04/04 07:15:39;;;;;;;7.10;3.88;;;;;;;0.19;100.00;99653.00;4160809;28;20496;-71
2023/04/04 07:17:40;;;;;;;6.13;3.80;;;;;;;0.22;100.00;99655.97;4158727;28;20390;-71
2023/04/04 07:19:40;;;;;;;7.80;4.40;;;;;;;0.21;100.00;99653.53;4158975;28;20496;-71
2023/04/04 07:21:41;;;;;;;9.30;4.35;;;;;;;0.24;100.00;99653.78;4159434;28;20791;-71
2023/04/04 07:23:41;;;;;;;9.63;4.40;;;;;;;0.30;100.00;99646.41;4161737;28;20076;-71
2023/04/04 07:25:41;;;;;;;7.63;3.65;;;;;;;0.37;100.00;99649.63;4162794;28;20037;-71
2023/04/04 07:27:41;;;;;;;8.63;5.65;;;;;;;0.41;100.00;99644.41;4159645;28;20049;-71
2023/04/04 07:29:42;;;;;;;7.97;5.10;;;;;;;0.49;100.00;99647.34;4158643;28;20041;-71
2023/04/04 07:31:42;;;;;;;5.80;3.92;;;;;;;0.59;100.00;99657.38;4162339;28;20597;-72
2023/04/04 07:33:43;;;;;;;6.07;4.32;;;;;;;0.64;100.00;99646.44;4167146;28;20041;-72
2023/04/04 07:35:43;;;;;;;6.45;4.35;;;;;;;0.63;100.00;99649.44;4161732;28;20032;-72
2023/04/04 07:37:43;;;;;;;6.82;4.68;;;;;;;0.65;100.00;99653.50;4161892;28;20049;-72
2023/04/04 07:39:44;;;;;;;6.47;3.83;;;;;;;0.66;100.00;99657.84;4161824;28;20061;-72
2023/04/04 07:41:44;;;;;;;8.73;4.78;;;;;;;0.71;100.00;99657.00;4163334;28;20034;-72
2023/04/04 07:43:44;;;;;;;7.38;4.57;;;;;;;0.70;100.00;99658.09;4161013;28;20041;-72
2023/04/04 07:45:45;;;;;;;6.30;4.22;;;;;;;0.62;100.00;99650.53;4161689;28;20052;-72
2023/04/04 07:47:46;;;;;;;7.22;4.05;;;;;;;0.69;99.82;99653.75;4162323;28;20386;-72
2023/04/04 07:49:46;;;;;;;8.23;5.18;;;;;;;0.71;100.00;99651.56;4161476;28;20363;-72
2023/04/04 07:51:47;;;;;;;7.43;4.50;;;;;;;0.72;99.90;99645.81;4162026;28;20041;-72
2023/04/04 07:53:48;;;;;;;7.38;4.38;;;;;;;0.76;100.00;99644.16;4160739;28;20041;-72
2023/04/04 07:55:48;;;;;;;6.13;4.20;;;;;;;0.81;100.00;99652.28;4163533;28;20033;-72
2023/04/04 07:57:48;;;;;;;6.82;4.68;;;;;;;0.81;97.41;99651.47;4164392;28;20491;-72
2023/04/04 07:59:48;;;;;;;7.82;5.03;;;;;;;0.85;98.97;99647.09;4164454;28;20537;-72
2023/04/04 08:01:49;;;;;;;9.40;5.10;;;;;;;0.91;100.00;99648.69;4162823;28;20030;-72
2023/04/04 08:03:52;;;;;;;8.23;4.53;;;;;;;1.00;95.34;99646.16;4164961;28;20427;-72
2023/04/04 08:05:52;;;;;;;7.57;4.65;;;;;;;1.07;94.93;99646.59;4162512;28;20733;-72
2023/04/04 08:07:52;;;;;;;6.40;4.90;;;;;;;1.08;96.15;99646.34;4161815;28;20048;-72
2023/04/04 08:09:53;;;;;;;8.75;5.13;;;;;;;1.18;96.93;99639.16;4161470;28;20041;-72
2023/04/04 08:11:53;;;;;;;8.73;4.85;;;;;;;1.21;95.33;99646.75;4161672;28;20045;-72
2023/04/04 08:13:53;;;;;;;6.53;4.50;;;;;;;1.24;93.10;99646.16;4161552;28;20049;-72
2023/04/04 08:15:54;;;;;;;7.63;4.60;;;;;;;1.28;93.04;99633.59;4161840;28;20385;-72
2023/04/04 08:17:54;;;;;;;8.65;4.82;;;;;;;1.24;94.14;99648.91;4160187;28;20479;-72
2023/04/04 08:19:55;;;;;;;6.28;4.72;;;;;;;1.25;94.47;99650.53;4145902;28;20041;-72
2023/04/04 08:21:55;;;;;;;7.85;5.15;;;;;;;1.24;93.92;99648.91;4161868;28;20053;-72
2023/04/04 08:23:55;;;;;;;7.72;4.75;;;;;;;1.29;91.87;99654.31;4159459;28;20072;-72
2023/04/04 08:25:58;;;;;;;7.07;5.07;;;;;;;1.31;89.22;99643.91;4160985;28;20114;-72
2023/04/04 08:27:59;;;;;;;6.55;4.60;;;;;;;1.35;86.58;99648.53;4161442;28;20060;-72
2023/04/04 08:30:02;;;;;;;5.47;3.83;;;;;;;1.37;84.50;99650.94;4167090;28;20033;-72
2023/04/04 08:32:03;;;;;;;7.68;4.22;;;;;;;1.25;87.32;99653.28;4161227;28;20339;-72
2023/04/04 08:34:06;;;;;;;6.70;4.80;;;;;;;1.30;89.66;99655.94;4160766;28;20025;-72
2023/04/04 08:36:07;;;;;;;7.15;5.05;;;;;;;1.20;88.15;99647.84;4161319;28;20358;-72
2023/04/04 08:38:07;;;;;;;6.70;4.80;;;;;;;1.13;90.37;99654.44;4160727;28;20041;-72
2023/04/04 08:40:08;;;;;;;5.97;4.80;;;;;;;1.20;88.61;99658.75;4160994;28;20117;-73
2023/04/04 08:42:09;;;;;;;9.15;5.05;;;;;;;1.20;82.72;99647.84;4160685;28;20471;-72
2023/04/04 08:44:19;;;;;;;6.95;4.82;;;;;;;1.15;85.29;99665.06;4160194;28;20305;-72
2023/04/04 08:46:24;;;;;;;8.13;5.07;;;;;;;1.20;87.57;99650.59;4160828;28;20454;-72
2023/04/04 08:48:28;;;;;;;7.35;5.18;;;;;;;1.15;89.42;99656.88;4160336;28;20041;-72
2023/04/04 08:50:29;;;;;;;9.70;5.20;;;;;;;1.22;89.51;99656.56;4162866;28;20500;-72
2023/04/04 08:52:31;;;;;;;7.47;5.72;;;;;;;1.07;88.97;99650.13;4160717;28;20079;-73
2023/04/04 08:54:33;;;;;;;7.68;5.90;;;;;;;1.12;90.31;99662.91;4160600;28;20128;-72
2023/04/04 08:56:34;;;;;;;9.25;5.28;;;;;;;1.17;86.67;99656.63;4161739;28;20478;-72
2023/04/04 08:58:37;;;;;;;7.20;5.43;;;;;;;1.17;87.00;99659.34;4160508;28;20052;-72
2023/04/04 09:00:39;;;;;;;9.02;5.53;;;;;;;1.18;86.80;99664.50;4161463;28;20121;-73
2023/04/04 09:02:47;;;;;;;6.28;5.15;;;;;;;1.18;85.67;99666.44;4160256;28;20041;-73
2023/04/04 09:04:48;;;;;;;11.63;6.90;;;;;;;1.15;85.83;99658.81;4161050;28;20120;-73
2023/04/04 09:06:49;;;;;;;8.32;5.47;;;;;;;1.23;87.09;99658.19;4161340;28;20099;-73
2023/04/04 09:08:52;;;;;;;7.82;5.72;;;;;;;1.25;84.60;99659.53;4167424;28;20043;-72
2023/04/04 09:10:54;;;;;;;5.20;4.57;;;;;;;1.19;83.40;99666.13;4161267;28;20437;-72
2023/04/04 09:12:55;;;;;;;6.68;4.97;;;;;;;1.16;83.66;99664.00;4159075;28;20041;-73
2023/04/04 09:14:58;;;;;;;8.82;4.72;;;;;;;1.14;84.48;99660.72;4160505;28;20481;-72
2023/04/04 09:16:58;;;;;;;7.95;4.68;;;;;;;1.14;82.92;99666.16;4161113;28;20401;-73
2023/04/04 09:18:59;;;;;;;6.50;4.85;;;;;;;1.14;83.41;99666.16;4160792;28;20048;-73
2023/04/04 09:21:07;;;;;;;6.78;4.55;;;;;;;1.10;83.90;99674.13;4163520;28;20116;-73
2023/04/04 09:23:13;;;;;;;6.68;4.55;;;;;;;1.10;82.50;99667.84;4160712;28;20474;-73
2023/04/04 09:25:13;;;;;;;5.63;4.15;;;;;;;1.10;81.33;99663.22;4160719;28;20112;-72
2023/04/04 09:27:15;;;;;;;7.63;5.03;;;;;;;1.06;79.51;99661.34;4163551;28;20029;-72
2023/04/04 09:29:21;;;;;;;7.30;5.03;;;;;;;1.06;79.69;99662.16;4160731;28;20045;-72